This is the latest recevied weather packets stored in our database for station/object OK1VCF-6. If no packets are shown the sender has not sent any weather packets the latest 10 day(s).
| Time | Temp. | Humidity | Pressure | Rain* | Wind** | Luminosity | Snow |
|---|---|---|---|---|---|---|---|
| 1777541235 | 8.89° C | 41% | 1031.4 hPa | - | - | - | - |
| 1777525025 | -1.11° C | 76% | 1031.4 hPa | - | - | - | - |
| 1777525023 | -1.11° C | 76% | 1031.4 hPa | - | - | - | - |
| 1777522327 | -1.11° C | 76% | 1031 hPa | - | - | - | - |
| 1777521422 | -1.67° C | 77% | 1031.2 hPa | - | - | - | - |
| 1777466362 | 7.78° C | 40% | 1027 hPa | - | - | - | - |
| 1777444562 | 4.44° C | 60% | 1026.2 hPa | - | - | - | - |
| 1777439248 | 0.56° C | 74% | 1025.4 hPa | - | - | - | - |
| 1777439158 | 0.56° C | 74% | 1025.4 hPa | - | - | - | - |
| 1777385865 | 13.33° C | 48% | 1022.7 hPa | - | - | - | - |
| 1777382243 | 12.22° C | 48% | 1022.8 hPa | - | - | - | - |
| 1777375907 | 13.33° C | 48% | 1023.1 hPa | - | - | - | - |
| 1777370475 | 14.44° C | 48% | 1023 hPa | - | - | - | - |
| 1777351625 | 3.33° C | 78% | 1022.4 hPa | - | - | - | - |
| 1777351398 | 3.33° C | 78% | 1022.4 hPa | - | - | - | - |
| 1777349600 | 2.78° C | 79% | 1022.2 hPa | - | - | - | - |
| 1777345995 | 3.33° C | 74% | 1022.1 hPa | - | - | - | - |
| 1777336072 | 4.44° C | 68% | 1022.2 hPa | - | - | - | - |
| 1777292578 | 14.44° C | 44% | 1022.6 hPa | - | - | - | - |
| 1777289880 | 13.89° C | 42% | 1023 hPa | - | - | - | - |
| 1777288978 | 13.33° C | 43% | 1023.2 hPa | - | - | - | - |
| 1777284337 | 12.22° C | 48% | 1023.7 hPa | - | - | - | - |
| 1777277102 | 7.78° C | 52% | 1024.4 hPa | - | - | - | - |
| 1777270756 | 4.44° C | 67% | 1024.6 hPa | - | - | - | - |
| 1777265342 | 1.11° C | 76% | 1024.5 hPa | - | - | - | - |
* Rain since midnight (hover to see other rain measurements)
** Current wind speed in m/s (hover to see current wind gust speed)